sensor_id;sensor_type;location;lat;lon;timestamp;P1;durP1;ratioP1;P2;durP2;ratioP2
2434;SDS011;1228;51.022;6.764;2023-04-27T00:02:24;7.57;;;6.80;;
2434;SDS011;1228;51.022;6.764;2023-04-27T00:04:50;7.60;;;6.73;;
2434;SDS011;1228;51.022;6.764;2023-04-27T00:07:16;6.50;;;5.90;;
2434;SDS011;1228;51.022;6.764;2023-04-27T00:09:41;6.77;;;6.37;;
2434;SDS011;1228;51.022;6.764;2023-04-27T00:12:07;7.00;;;6.53;;
2434;SDS011;1228;51.022;6.764;2023-04-27T00:14:32;6.90;;;6.50;;
2434;SDS011;1228;51.022;6.764;2023-04-27T00:16:58;8.07;;;7.17;;
2434;SDS011;1228;51.022;6.764;2023-04-27T00:19:23;7.30;;;6.70;;
2434;SDS011;1228;51.022;6.764;2023-04-27T00:21:49;7.33;;;6.73;;
2434;SDS011;1228;51.022;6.764;2023-04-27T00:24:15;7.20;;;6.50;;
2434;SDS011;1228;51.022;6.764;2023-04-27T00:26:41;8.07;;;7.30;;
2434;SDS011;1228;51.022;6.764;2023-04-27T00:29:06;11.77;;;8.40;;
2434;SDS011;1228;51.022;6.764;2023-04-27T00:31:32;7.27;;;6.87;;
2434;SDS011;1228;51.022;6.764;2023-04-27T00:33:57;7.77;;;7.27;;
2434;SDS011;1228;51.022;6.764;2023-04-27T00:36:23;7.60;;;6.83;;
2434;SDS011;1228;51.022;6.764;2023-04-27T00:38:48;8.50;;;7.80;;
2434;SDS011;1228;51.022;6.764;2023-04-27T00:41:14;7.30;;;6.77;;
2434;SDS011;1228;51.022;6.764;2023-04-27T00:43:43;7.23;;;6.73;;
2434;SDS011;1228;51.022;6.764;2023-04-27T00:46:10;8.43;;;7.63;;
2434;SDS011;1228;51.022;6.764;2023-04-27T00:48:37;7.37;;;6.87;;
2434;SDS011;1228;51.022;6.764;2023-04-27T00:51:03;7.40;;;6.80;;
2434;SDS011;1228;51.022;6.764;2023-04-27T00:53:30;7.27;;;6.57;;
2434;SDS011;1228;51.022;6.764;2023-04-27T00:55:56;8.37;;;7.53;;
2434;SDS011;1228;51.022;6.764;2023-04-27T00:58:22;6.93;;;6.40;;
2434;SDS011;1228;51.022;6.764;2023-04-27T01:00:49;7.83;;;7.23;;
2434;SDS011;1228;51.022;6.764;2023-04-27T01:03:15;8.40;;;7.70;;
2434;SDS011;1228;51.022;6.764;2023-04-27T01:05:41;7.23;;;6.73;;
2434;SDS011;1228;51.022;6.764;2023-04-27T01:08:07;7.57;;;6.70;;
2434;SDS011;1228;51.022;6.764;2023-04-27T01:10:33;9.00;;;6.93;;
2434;SDS011;1228;51.022;6.764;2023-04-27T01:12:59;7.00;;;6.33;;
2434;SDS011;1228;51.022;6.764;2023-04-27T01:15:25;12.87;;;6.97;;
2434;SDS011;1228;51.022;6.764;2023-04-27T01:17:57;7.47;;;6.87;;
2434;SDS011;1228;51.022;6.764;2023-04-27T01:20:24;9.47;;;6.83;;
2434;SDS011;1228;51.022;6.764;2023-04-27T01:22:54;7.63;;;7.10;;
2434;SDS011;1228;51.022;6.764;2023-04-27T01:25:20;6.67;;;6.20;;
2434;SDS011;1228;51.022;6.764;2023-04-27T01:27:45;7.47;;;6.87;;
2434;SDS011;1228;51.022;6.764;2023-04-27T01:30:11;8.17;;;6.83;;
2434;SDS011;1228;51.022;6.764;2023-04-27T01:32:37;7.77;;;7.07;;
2434;SDS011;1228;51.022;6.764;2023-04-27T01:35:03;7.60;;;7.00;;
2434;SDS011;1228;51.022;6.764;2023-04-27T01:37:29;12.67;;;7.00;;
2434;SDS011;1228;51.022;6.764;2023-04-27T01:39:55;7.70;;;7.10;;
2434;SDS011;1228;51.022;6.764;2023-04-27T01:42:21;7.40;;;6.80;;
2434;SDS011;1228;51.022;6.764;2023-04-27T01:44:47;7.40;;;6.70;;
2434;SDS011;1228;51.022;6.764;2023-04-27T01:47:13;8.50;;;7.80;;
2434;SDS011;1228;51.022;6.764;2023-04-27T01:49:40;8.20;;;7.50;;
2434;SDS011;1228;51.022;6.764;2023-04-27T01:52:06;7.43;;;6.93;;
2434;SDS011;1228;51.022;6.764;2023-04-27T01:54:31;7.27;;;6.57;;
2434;SDS011;1228;51.022;6.764;2023-04-27T01:56:57;8.37;;;7.57;;
2434;SDS011;1228;51.022;6.764;2023-04-27T01:59:22;9.67;;;6.70;;
2434;SDS011;1228;51.022;6.764;2023-04-27T02:01:48;8.27;;;7.13;;
2434;SDS011;1228;51.022;6.764;2023-04-27T02:04:14;8.77;;;7.97;;
2434;SDS011;1228;51.022;6.764;2023-04-27T02:06:39;9.80;;;8.10;;
2434;SDS011;1228;51.022;6.764;2023-04-27T02:09:05;9.20;;;8.10;;
2434;SDS011;1228;51.022;6.764;2023-04-27T02:11:31;8.07;;;7.57;;
2434;SDS011;1228;51.022;6.764;2023-04-27T02:13:56;7.73;;;7.03;;
2434;SDS011;1228;51.022;6.764;2023-04-27T02:16:22;10.27;;;7.80;;
2434;SDS011;1228;51.022;6.764;2023-04-27T02:18:48;8.67;;;7.87;;
2434;SDS011;1228;51.022;6.764;2023-04-27T02:21:13;8.80;;;8.17;;
2434;SDS011;1228;51.022;6.764;2023-04-27T02:23:39;8.20;;;7.50;;
2434;SDS011;1228;51.022;6.764;2023-04-27T02:26:04;9.63;;;8.03;;
2434;SDS011;1228;51.022;6.764;2023-04-27T02:28:30;8.47;;;7.77;;
2434;SDS011;1228;51.022;6.764;2023-04-27T02:30:56;9.43;;;8.77;;
2434;SDS011;1228;51.022;6.764;2023-04-27T02:33:22;8.80;;;8.20;;
2434;SDS011;1228;51.022;6.764;2023-04-27T02:35:48;12.73;;;8.50;;
2434;SDS011;1228;51.022;6.764;2023-04-27T02:38:13;8.93;;;8.33;;
2434;SDS011;1228;51.022;6.764;2023-04-27T02:40:39;10.47;;;9.67;;
2434;SDS011;1228;51.022;6.764;2023-04-27T02:43:05;10.83;;;10.13;;
2434;SDS011;1228;51.022;6.764;2023-04-27T02:45:30;11.23;;;10.53;;
2434;SDS011;1228;51.022;6.764;2023-04-27T02:47:56;11.70;;;11.00;;
2434;SDS011;1228;51.022;6.764;2023-04-27T02:50:22;16.23;;;11.43;;
2434;SDS011;1228;51.022;6.764;2023-04-27T02:52:47;11.77;;;10.80;;
2434;SDS011;1228;51.022;6.764;2023-04-27T02:55:13;10.17;;;9.47;;
2434;SDS011;1228;51.022;6.764;2023-04-27T02:57:39;11.33;;;10.23;;
2434;SDS011;1228;51.022;6.764;2023-04-27T03:00:05;13.80;;;10.60;;
2434;SDS011;1228;51.022;6.764;2023-04-27T03:02:33;12.37;;;11.37;;
2434;SDS011;1228;51.022;6.764;2023-04-27T03:04:58;12.03;;;10.97;;
2434;SDS011;1228;51.022;6.764;2023-04-27T03:07:24;12.13;;;11.23;;
2434;SDS011;1228;51.022;6.764;2023-04-27T03:09:49;11.23;;;10.43;;
2434;SDS011;1228;51.022;6.764;2023-04-27T03:12:15;11.53;;;10.67;;
2434;SDS011;1228;51.022;6.764;2023-04-27T03:14:41;9.87;;;9.27;;
2434;SDS011;1228;51.022;6.764;2023-04-27T03:17:06;10.97;;;10.20;;
2434;SDS011;1228;51.022;6.764;2023-04-27T03:19:32;9.77;;;9.10;;
2434;SDS011;1228;51.022;6.764;2023-04-27T03:21:57;9.40;;;8.77;;
2434;SDS011;1228;51.022;6.764;2023-04-27T03:24:23;11.03;;;9.93;;
2434;SDS011;1228;51.022;6.764;2023-04-27T03:26:51;10.13;;;8.50;;
2434;SDS011;1228;51.022;6.764;2023-04-27T03:29:16;9.50;;;8.80;;
2434;SDS011;1228;51.022;6.764;2023-04-27T03:31:42;12.40;;;8.60;;
2434;SDS011;1228;51.022;6.764;2023-04-27T03:34:08;9.87;;;8.93;;
2434;SDS011;1228;51.022;6.764;2023-04-27T03:36:34;11.73;;;9.33;;
2434;SDS011;1228;51.022;6.764;2023-04-27T03:38:59;11.03;;;10.27;;
2434;SDS011;1228;51.022;6.764;2023-04-27T03:41:25;10.50;;;9.67;;
2434;SDS011;1228;51.022;6.764;2023-04-27T03:43:51;10.73;;;10.03;;
2434;SDS011;1228;51.022;6.764;2023-04-27T03:46:17;11.47;;;10.63;;
2434;SDS011;1228;51.022;6.764;2023-04-27T03:48:43;11.80;;;8.80;;
2434;SDS011;1228;51.022;6.764;2023-04-27T03:51:11;10.93;;;9.47;;
2434;SDS011;1228;51.022;6.764;2023-04-27T03:53:36;10.50;;;9.60;;
2434;SDS011;1228;51.022;6.764;2023-04-27T03:56:02;9.33;;;8.60;;
2434;SDS011;1228;51.022;6.764;2023-04-27T03:58:27;12.07;;;10.53;;
2434;SDS011;1228;51.022;6.764;2023-04-27T04:00:53;10.97;;;10.23;;
2434;SDS011;1228;51.022;6.764;2023-04-27T04:03:18;12.27;;;11.23;;
2434;SDS011;1228;51.022;6.764;2023-04-27T04:05:44;12.70;;;11.57;;
2434;SDS011;1228;51.022;6.764;2023-04-27T04:08:11;10.27;;;9.20;;
2434;SDS011;1228;51.022;6.764;2023-04-27T04:10:37;9.07;;;8.17;;
2434;SDS011;1228;51.022;6.764;2023-04-27T04:13:03;9.93;;;8.97;;
2434;SDS011;1228;51.022;6.764;2023-04-27T04:15:28;9.77;;;9.10;;
2434;SDS011;1228;51.022;6.764;2023-04-27T04:17:54;8.90;;;8.30;;
2434;SDS011;1228;51.022;6.764;2023-04-27T04:20:20;8.33;;;7.83;;
2434;SDS011;1228;51.022;6.764;2023-04-27T04:22:46;9.90;;;9.00;;
2434;SDS011;1228;51.022;6.764;2023-04-27T04:25:12;9.77;;;8.87;;
2434;SDS011;1228;51.022;6.764;2023-04-27T04:27:37;9.50;;;8.70;;
2434;SDS011;1228;51.022;6.764;2023-04-27T04:30:04;10.90;;;9.80;;
2434;SDS011;1228;51.022;6.764;2023-04-27T04:32:31;9.33;;;8.53;;
2434;SDS011;1228;51.022;6.764;2023-04-27T04:34:57;9.30;;;8.40;;
2434;SDS011;1228;51.022;6.764;2023-04-27T04:37:25;10.83;;;9.93;;
2434;SDS011;1228;51.022;6.764;2023-04-27T04:39:51;12.37;;;9.70;;
2434;SDS011;1228;51.022;6.764;2023-04-27T04:42:17;13.13;;;11.17;;
2434;SDS011;1228;51.022;6.764;2023-04-27T04:44:42;10.50;;;9.70;;
2434;SDS011;1228;51.022;6.764;2023-04-27T04:47:08;10.17;;;9.60;;
2434;SDS011;1228;51.022;6.764;2023-04-27T04:49:34;10.73;;;9.63;;
2434;SDS011;1228;51.022;6.764;2023-04-27T04:52:00;10.30;;;9.40;;
2434;SDS011;1228;51.022;6.764;2023-04-27T04:54:28;10.33;;;9.30;;
2434;SDS011;1228;51.022;6.764;2023-04-27T04:56:53;11.07;;;9.90;;
2434;SDS011;1228;51.022;6.764;2023-04-27T04:59:19;10.33;;;9.43;;
2434;SDS011;1228;51.022;6.764;2023-04-27T05:01:44;10.03;;;9.23;;
2434;SDS011;1228;51.022;6.764;2023-04-27T05:04:10;13.40;;;8.83;;
2434;SDS011;1228;51.022;6.764;2023-04-27T05:06:36;11.07;;;9.97;;
2434;SDS011;1228;51.022;6.764;2023-04-27T05:09:01;14.13;;;9.47;;
2434;SDS011;1228;51.022;6.764;2023-04-27T05:11:28;21.57;;;8.53;;
2434;SDS011;1228;51.022;6.764;2023-04-27T05:13:54;10.90;;;9.80;;
2434;SDS011;1228;51.022;6.764;2023-04-27T05:16:19;9.37;;;8.57;;
2434;SDS011;1228;51.022;6.764;2023-04-27T05:18:45;9.50;;;8.67;;
2434;SDS011;1228;51.022;6.764;2023-04-27T05:21:14;10.30;;;9.27;;
2434;SDS011;1228;51.022;6.764;2023-04-27T05:23:40;9.87;;;9.00;;
2434;SDS011;1228;51.022;6.764;2023-04-27T05:26:16;9.20;;;8.50;;
2434;SDS011;1228;51.022;6.764;2023-04-27T05:28:42;10.43;;;9.43;;
2434;SDS011;1228;51.022;6.764;2023-04-27T05:31:08;9.77;;;8.83;;
2434;SDS011;1228;51.022;6.764;2023-04-27T05:33:34;10.03;;;9.03;;
2434;SDS011;1228;51.022;6.764;2023-04-27T05:36:00;10.70;;;9.70;;
2434;SDS011;1228;51.022;6.764;2023-04-27T05:38:25;11.57;;;9.70;;
2434;SDS011;1228;51.022;6.764;2023-04-27T05:40:54;10.63;;;9.60;;
2434;SDS011;1228;51.022;6.764;2023-04-27T05:43:21;10.57;;;8.03;;
2434;SDS011;1228;51.022;6.764;2023-04-27T05:45:47;11.63;;;9.23;;
2434;SDS011;1228;51.022;6.764;2023-04-27T05:48:13;9.93;;;8.80;;
2434;SDS011;1228;51.022;6.764;2023-04-27T05:50:39;14.60;;;9.37;;
2434;SDS011;1228;51.022;6.764;2023-04-27T05:53:04;9.03;;;8.23;;
2434;SDS011;1228;51.022;6.764;2023-04-27T05:55:30;9.80;;;8.80;;
2434;SDS011;1228;51.022;6.764;2023-04-27T05:57:56;12.13;;;8.57;;
2434;SDS011;1228;51.022;6.764;2023-04-27T06:00:22;10.80;;;8.83;;
2434;SDS011;1228;51.022;6.764;2023-04-27T06:02:49;9.70;;;8.47;;
2434;SDS011;1228;51.022;6.764;2023-04-27T06:05:15;11.80;;;8.77;;
2434;SDS011;1228;51.022;6.764;2023-04-27T06:07:41;9.13;;;8.27;;
2434;SDS011;1228;51.022;6.764;2023-04-27T06:10:08;11.93;;;9.83;;
2434;SDS011;1228;51.022;6.764;2023-04-27T06:12:34;10.57;;;8.17;;
2434;SDS011;1228;51.022;6.764;2023-04-27T06:15:00;10.93;;;8.53;;
2434;SDS011;1228;51.022;6.764;2023-04-27T06:17:27;9.90;;;8.13;;
2434;SDS011;1228;51.022;6.764;2023-04-27T06:19:53;8.53;;;7.73;;
2434;SDS011;1228;51.022;6.764;2023-04-27T06:22:18;8.47;;;6.87;;
2434;SDS011;1228;51.022;6.764;2023-04-27T06:24:44;7.33;;;6.67;;
2434;SDS011;1228;51.022;6.764;2023-04-27T06:27:10;7.37;;;6.73;;
2434;SDS011;1228;51.022;6.764;2023-04-27T06:29:37;8.53;;;6.77;;
2434;SDS011;1228;51.022;6.764;2023-04-27T06:32:02;7.97;;;7.23;;
2434;SDS011;1228;51.022;6.764;2023-04-27T06:34:31;7.63;;;6.87;;
2434;SDS011;1228;51.022;6.764;2023-04-27T06:36:57;8.87;;;6.70;;
2434;SDS011;1228;51.022;6.764;2023-04-27T06:39:23;10.50;;;7.20;;
2434;SDS011;1228;51.022;6.764;2023-04-27T06:41:48;7.57;;;6.77;;
2434;SDS011;1228;51.022;6.764;2023-04-27T06:44:14;7.30;;;6.70;;
2434;SDS011;1228;51.022;6.764;2023-04-27T06:46:39;9.30;;;7.13;;
2434;SDS011;1228;51.022;6.764;2023-04-27T06:49:05;8.07;;;6.80;;
2434;SDS011;1228;51.022;6.764;2023-04-27T06:51:30;7.97;;;7.17;;
2434;SDS011;1228;51.022;6.764;2023-04-27T06:53:56;8.10;;;7.23;;
2434;SDS011;1228;51.022;6.764;2023-04-27T06:56:22;7.13;;;6.43;;
2434;SDS011;1228;51.022;6.764;2023-04-27T06:58:47;13.70;;;7.60;;
2434;SDS011;1228;51.022;6.764;2023-04-27T07:01:13;8.33;;;6.97;;
2434;SDS011;1228;51.022;6.764;2023-04-27T07:03:38;7.37;;;6.50;;
2434;SDS011;1228;51.022;6.764;2023-04-27T07:06:04;7.40;;;6.70;;
2434;SDS011;1228;51.022;6.764;2023-04-27T07:08:30;7.40;;;6.67;;
2434;SDS011;1228;51.022;6.764;2023-04-27T07:10:56;11.53;;;6.30;;
2434;SDS011;1228;51.022;6.764;2023-04-27T07:13:22;9.57;;;6.80;;
2434;SDS011;1228;51.022;6.764;2023-04-27T07:15:47;8.63;;;6.80;;
2434;SDS011;1228;51.022;6.764;2023-04-27T07:18:19;7.73;;;6.93;;
2434;SDS011;1228;51.022;6.764;2023-04-27T07:20:44;8.00;;;7.30;;
2434;SDS011;1228;51.022;6.764;2023-04-27T07:23:10;7.90;;;7.10;;
2434;SDS011;1228;51.022;6.764;2023-04-27T07:25:36;7.57;;;6.77;;
2434;SDS011;1228;51.022;6.764;2023-04-27T07:28:01;7.53;;;6.83;;
2434;SDS011;1228;51.022;6.764;2023-04-27T07:30:28;7.43;;;6.50;;
2434;SDS011;1228;51.022;6.764;2023-04-27T07:32:54;10.57;;;7.93;;
2434;SDS011;1228;51.022;6.764;2023-04-27T07:35:20;8.57;;;7.23;;
2434;SDS011;1228;51.022;6.764;2023-04-27T07:37:46;8.87;;;6.90;;
2434;SDS011;1228;51.022;6.764;2023-04-27T07:40:13;8.07;;;6.43;;
2434;SDS011;1228;51.022;6.764;2023-04-27T07:42:40;6.97;;;5.83;;
2434;SDS011;1228;51.022;6.764;2023-04-27T07:45:07;7.47;;;5.80;;
2434;SDS011;1228;51.022;6.764;2023-04-27T07:47:33;8.80;;;6.27;;
2434;SDS011;1228;51.022;6.764;2023-04-27T07:49:59;8.47;;;6.10;;
2434;SDS011;1228;51.022;6.764;2023-04-27T07:52:25;7.67;;;6.87;;
2434;SDS011;1228;51.022;6.764;2023-04-27T07:54:50;7.80;;;7.00;;
2434;SDS011;1228;51.022;6.764;2023-04-27T07:57:16;8.07;;;6.80;;
2434;SDS011;1228;51.022;6.764;2023-04-27T07:59:41;7.07;;;6.28;;
2434;SDS011;1228;51.022;6.764;2023-04-27T08:02:07;8.82;;;6.65;;
2434;SDS011;1228;51.022;6.764;2023-04-27T08:04:33;8.90;;;6.57;;
2434;SDS011;1228;51.022;6.764;2023-04-27T08:06:58;7.47;;;6.75;;
2434;SDS011;1228;51.022;6.764;2023-04-27T08:09:24;10.23;;;6.35;;
2434;SDS011;1228;51.022;6.764;2023-04-27T08:11:50;7.35;;;6.45;;
2434;SDS011;1228;51.022;6.764;2023-04-27T08:14:16;9.68;;;7.25;;
2434;SDS011;1228;51.022;6.764;2023-04-27T08:16:42;9.32;;;7.15;;
2434;SDS011;1228;51.022;6.764;2023-04-27T08:19:08;8.90;;;6.82;;
2434;SDS011;1228;51.022;6.764;2023-04-27T08:21:37;7.82;;;7.13;;
2434;SDS011;1228;51.022;6.764;2023-04-27T08:24:04;7.32;;;6.45;;
2434;SDS011;1228;51.022;6.764;2023-04-27T08:26:30;8.02;;;6.50;;
2434;SDS011;1228;51.022;6.764;2023-04-27T08:28:56;6.90;;;6.22;;
2434;SDS011;1228;51.022;6.764;2023-04-27T08:31:23;9.65;;;6.50;;
2434;SDS011;1228;51.022;6.764;2023-04-27T08:33:50;7.93;;;6.55;;
2434;SDS011;1228;51.022;6.764;2023-04-27T08:36:16;9.85;;;6.95;;
2434;SDS011;1228;51.022;6.764;2023-04-27T08:38:43;13.13;;;6.80;;
2434;SDS011;1228;51.022;6.764;2023-04-27T08:41:08;8.77;;;6.87;;
2434;SDS011;1228;51.022;6.764;2023-04-27T08:43:34;10.82;;;6.78;;
2434;SDS011;1228;51.022;6.764;2023-04-27T08:46:00;10.00;;;6.38;;
2434;SDS011;1228;51.022;6.764;2023-04-27T08:48:26;8.50;;;5.87;;
2434;SDS011;1228;51.022;6.764;2023-04-27T08:50:52;7.70;;;5.97;;
2434;SDS011;1228;51.022;6.764;2023-04-27T08:53:20;7.40;;;5.97;;
2434;SDS011;1228;51.022;6.764;2023-04-27T08:55:46;11.80;;;6.93;;
2434;SDS011;1228;51.022;6.764;2023-04-27T08:58:12;7.85;;;6.20;;
2434;SDS011;1228;51.022;6.764;2023-04-27T09:00:40;7.32;;;6.03;;
2434;SDS011;1228;51.022;6.764;2023-04-27T09:03:16;8.68;;;6.25;;
2434;SDS011;1228;51.022;6.764;2023-04-27T09:05:45;10.32;;;6.40;;
2434;SDS011;1228;51.022;6.764;2023-04-27T09:08:12;7.30;;;5.90;;
2434;SDS011;1228;51.022;6.764;2023-04-27T09:10:47;6.88;;;5.53;;
2434;SDS011;1228;51.022;6.764;2023-04-27T09:13:16;7.28;;;5.53;;
2434;SDS011;1228;51.022;6.764;2023-04-27T09:15:43;7.63;;;5.40;;
2434;SDS011;1228;51.022;6.764;2023-04-27T09:18:16;7.78;;;6.13;;
2434;SDS011;1228;51.022;6.764;2023-04-27T09:20:50;5.93;;;5.32;;
2434;SDS011;1228;51.022;6.764;2023-04-27T09:25:56;6.68;;;5.45;;
2434;SDS011;1228;51.022;6.764;2023-04-27T09:28:26;6.20;;;5.53;;
2434;SDS011;1228;51.022;6.764;2023-04-27T09:33:22;7.05;;;5.72;;
2434;SDS011;1228;51.022;6.764;2023-04-27T09:35:49;6.75;;;5.65;;
2434;SDS011;1228;51.022;6.764;2023-04-27T09:38:16;6.30;;;5.20;;
2434;SDS011;1228;51.022;6.764;2023-04-27T09:40:43;5.63;;;4.97;;
2434;SDS011;1228;51.022;6.764;2023-04-27T09:43:08;6.50;;;5.85;;
2434;SDS011;1228;51.022;6.764;2023-04-27T09:45:35;5.68;;;5.07;;
2434;SDS011;1228;51.022;6.764;2023-04-27T09:48:01;6.97;;;4.95;;
2434;SDS011;1228;51.022;6.764;2023-04-27T09:50:29;7.53;;;5.85;;
2434;SDS011;1228;51.022;6.764;2023-04-27T09:52:58;7.45;;;5.40;;
2434;SDS011;1228;51.022;6.764;2023-04-27T09:55:26;6.10;;;5.10;;
2434;SDS011;1228;51.022;6.764;2023-04-27T09:58:08;9.45;;;5.68;;
2434;SDS011;1228;51.022;6.764;2023-04-27T10:04:37;6.70;;;5.50;;
2434;SDS011;1228;51.022;6.764;2023-04-27T10:07:00;10.85;;;5.28;;
2434;SDS011;1228;51.022;6.764;2023-04-27T10:14:48;6.97;;;5.88;;
2434;SDS011;1228;51.022;6.764;2023-04-27T10:17:31;6.03;;;4.97;;
2434;SDS011;1228;51.022;6.764;2023-04-27T10:20:00;5.95;;;5.28;;
2434;SDS011;1228;51.022;6.764;2023-04-27T10:22:47;6.13;;;5.40;;
2434;SDS011;1228;51.022;6.764;2023-04-27T10:25:20;5.70;;;5.10;;
2434;SDS011;1228;51.022;6.764;2023-04-27T10:27:52;5.55;;;5.05;;
2434;SDS011;1228;51.022;6.764;2023-04-27T10:30:19;5.57;;;5.07;;
2434;SDS011;1228;51.022;6.764;2023-04-27T10:32:50;9.57;;;5.72;;
2434;SDS011;1228;51.022;6.764;2023-04-27T10:35:20;6.70;;;6.10;;
2434;SDS011;1228;51.022;6.764;2023-04-27T10:40:40;5.63;;;5.13;;
2434;SDS011;1228;51.022;6.764;2023-04-27T10:43:16;7.90;;;5.22;;
2434;SDS011;1228;51.022;6.764;2023-04-27T10:45:42;9.60;;;6.10;;
2434;SDS011;1228;51.022;6.764;2023-04-27T10:48:11;6.50;;;5.38;;
2434;SDS011;1228;51.022;6.764;2023-04-27T10:50:39;6.22;;;5.15;;
2434;SDS011;1228;51.022;6.764;2023-04-27T10:53:06;5.40;;;4.93;;
2434;SDS011;1228;51.022;6.764;2023-04-27T10:55:32;6.95;;;5.95;;
2434;SDS011;1228;51.022;6.764;2023-04-27T10:57:59;6.30;;;5.63;;
2434;SDS011;1228;51.022;6.764;2023-04-27T11:02:53;5.90;;;5.32;;
2434;SDS011;1228;51.022;6.764;2023-04-27T11:05:22;6.53;;;5.68;;
2434;SDS011;1228;51.022;6.764;2023-04-27T11:07:50;6.03;;;5.43;;
2434;SDS011;1228;51.022;6.764;2023-04-27T11:10:17;6.28;;;5.68;;
2434;SDS011;1228;51.022;6.764;2023-04-27T11:12:43;7.10;;;5.75;;
2434;SDS011;1228;51.022;6.764;2023-04-27T11:15:09;6.85;;;6.25;;
2434;SDS011;1228;51.022;6.764;2023-04-27T11:17:36;6.18;;;5.50;;
2434;SDS011;1228;51.022;6.764;2023-04-27T11:20:01;5.78;;;5.18;;
2434;SDS011;1228;51.022;6.764;2023-04-27T11:22:29;6.70;;;5.97;;
2434;SDS011;1228;51.022;6.764;2023-04-27T11:24:55;6.35;;;5.75;;
2434;SDS011;1228;51.022;6.764;2023-04-27T11:27:20;7.25;;;5.82;;
2434;SDS011;1228;51.022;6.764;2023-04-27T11:29:48;8.98;;;6.60;;
2434;SDS011;1228;51.022;6.764;2023-04-27T11:32:17;7.35;;;6.53;;
2434;SDS011;1228;51.022;6.764;2023-04-27T11:34:53;7.88;;;5.82;;
2434;SDS011;1228;51.022;6.764;2023-04-27T11:37:22;7.30;;;6.60;;
2434;SDS011;1228;51.022;6.764;2023-04-27T11:39:50;9.05;;;6.22;;
2434;SDS011;1228;51.022;6.764;2023-04-27T11:42:24;6.55;;;5.97;;
2434;SDS011;1228;51.022;6.764;2023-04-27T11:44:53;7.35;;;6.55;;
2434;SDS011;1228;51.022;6.764;2023-04-27T11:47:20;8.02;;;7.32;;
2434;SDS011;1228;51.022;6.764;2023-04-27T11:49:56;6.40;;;5.85;;
2434;SDS011;1228;51.022;6.764;2023-04-27T11:52:27;9.43;;;6.47;;
2434;SDS011;1228;51.022;6.764;2023-04-27T11:54:53;6.95;;;6.25;;
2434;SDS011;1228;51.022;6.764;2023-04-27T11:57:27;9.75;;;6.05;;
2434;SDS011;1228;51.022;6.764;2023-04-27T11:59:55;6.07;;;5.50;;
2434;SDS011;1228;51.022;6.764;2023-04-27T12:02:24;9.15;;;6.57;;
2434;SDS011;1228;51.022;6.764;2023-04-27T12:04:50;7.50;;;5.47;;
2434;SDS011;1228;51.022;6.764;2023-04-27T12:07:17;6.75;;;5.85;;
2434;SDS011;1228;51.022;6.764;2023-04-27T12:09:43;6.60;;;5.10;;
2434;SDS011;1228;51.022;6.764;2023-04-27T12:12:09;6.10;;;5.47;;
2434;SDS011;1228;51.022;6.764;2023-04-27T12:14:35;7.50;;;5.97;;
2434;SDS011;1228;51.022;6.764;2023-04-27T12:17:01;6.97;;;6.28;;
2434;SDS011;1228;51.022;6.764;2023-04-27T12:19:27;7.15;;;5.75;;
2434;SDS011;1228;51.022;6.764;2023-04-27T12:21:52;5.95;;;5.45;;
2434;SDS011;1228;51.022;6.764;2023-04-27T12:24:19;10.32;;;5.60;;
2434;SDS011;1228;51.022;6.764;2023-04-27T12:26:45;8.02;;;5.70;;
2434;SDS011;1228;51.022;6.764;2023-04-27T12:29:12;8.90;;;6.00;;
2434;SDS011;1228;51.022;6.764;2023-04-27T12:31:38;9.32;;;6.15;;
2434;SDS011;1228;51.022;6.764;2023-04-27T12:34:03;7.00;;;5.45;;
2434;SDS011;1228;51.022;6.764;2023-04-27T12:36:29;7.43;;;5.75;;
2434;SDS011;1228;51.022;6.764;2023-04-27T12:38:59;7.93;;;5.88;;
2434;SDS011;1228;51.022;6.764;2023-04-27T12:41:43;6.88;;;5.90;;
2434;SDS011;1228;51.022;6.764;2023-04-27T12:44:10;7.25;;;5.63;;
2434;SDS011;1228;51.022;6.764;2023-04-27T12:46:37;10.25;;;5.28;;
2434;SDS011;1228;51.022;6.764;2023-04-27T12:49:03;7.28;;;6.32;;
2434;SDS011;1228;51.022;6.764;2023-04-27T12:51:30;6.20;;;5.60;;
2434;SDS011;1228;51.022;6.764;2023-04-27T12:53:56;7.28;;;6.15;;
2434;SDS011;1228;51.022;6.764;2023-04-27T12:56:22;8.60;;;7.07;;
2434;SDS011;1228;51.022;6.764;2023-04-27T12:58:48;7.38;;;6.60;;
2434;SDS011;1228;51.022;6.764;2023-04-27T13:01:13;7.63;;;6.38;;
2434;SDS011;1228;51.022;6.764;2023-04-27T13:03:39;10.10;;;6.57;;
2434;SDS011;1228;51.022;6.764;2023-04-27T13:06:06;8.75;;;6.18;;
2434;SDS011;1228;51.022;6.764;2023-04-27T13:08:32;6.72;;;6.03;;
2434;SDS011;1228;51.022;6.764;2023-04-27T13:10:58;8.15;;;6.22;;
2434;SDS011;1228;51.022;6.764;2023-04-27T13:13:24;8.45;;;6.60;;
2434;SDS011;1228;51.022;6.764;2023-04-27T13:15:50;6.90;;;6.20;;
2434;SDS011;1228;51.022;6.764;2023-04-27T13:18:16;8.50;;;5.45;;
2434;SDS011;1228;51.022;6.764;2023-04-27T13:20:42;7.95;;;6.47;;
2434;SDS011;1228;51.022;6.764;2023-04-27T13:23:08;11.10;;;6.35;;
2434;SDS011;1228;51.022;6.764;2023-04-27T13:25:34;8.32;;;6.40;;
2434;SDS011;1228;51.022;6.764;2023-04-27T13:28:00;7.28;;;6.57;;
2434;SDS011;1228;51.022;6.764;2023-04-27T13:30:26;6.22;;;5.63;;
2434;SDS011;1228;51.022;6.764;2023-04-27T13:32:52;7.05;;;6.35;;
2434;SDS011;1228;51.022;6.764;2023-04-27T13:35:18;7.07;;;6.15;;
2434;SDS011;1228;51.022;6.764;2023-04-27T13:37:43;7.75;;;6.28;;
2434;SDS011;1228;51.022;6.764;2023-04-27T13:40:09;6.97;;;6.28;;
2434;SDS011;1228;51.022;6.764;2023-04-27T13:42:35;8.23;;;6.00;;
2434;SDS011;1228;51.022;6.764;2023-04-27T13:45:02;7.38;;;6.30;;
2434;SDS011;1228;51.022;6.764;2023-04-27T13:47:28;6.72;;;5.63;;
2434;SDS011;1228;51.022;6.764;2023-04-27T13:50:01;6.90;;;6.20;;
2434;SDS011;1228;51.022;6.764;2023-04-27T13:52:45;10.68;;;7.00;;
2434;SDS011;1228;51.022;6.764;2023-04-27T13:55:11;8.00;;;6.90;;
2434;SDS011;1228;51.022;6.764;2023-04-27T13:57:36;8.77;;;6.43;;
2434;SDS011;1228;51.022;6.764;2023-04-27T14:00:03;7.65;;;6.38;;
2434;SDS011;1228;51.022;6.764;2023-04-27T14:02:35;10.82;;;6.30;;
2434;SDS011;1228;51.022;6.764;2023-04-27T14:05:01;7.57;;;6.65;;
2434;SDS011;1228;51.022;6.764;2023-04-27T14:07:27;8.27;;;7.32;;
2434;SDS011;1228;51.022;6.764;2023-04-27T14:09:54;7.32;;;6.43;;
2434;SDS011;1228;51.022;6.764;2023-04-27T14:12:20;7.55;;;5.80;;
2434;SDS011;1228;51.022;6.764;2023-04-27T14:14:45;9.45;;;7.32;;
2434;SDS011;1228;51.022;6.764;2023-04-27T14:17:11;7.07;;;6.38;;
2434;SDS011;1228;51.022;6.764;2023-04-27T14:19:36;6.55;;;5.90;;
2434;SDS011;1228;51.022;6.764;2023-04-27T14:22:02;8.15;;;6.80;;
2434;SDS011;1228;51.022;6.764;2023-04-27T14:24:30;8.32;;;6.63;;
2434;SDS011;1228;51.022;6.764;2023-04-27T14:26:55;6.07;;;5.57;;
2434;SDS011;1228;51.022;6.764;2023-04-27T14:29:21;8.18;;;6.80;;
2434;SDS011;1228;51.022;6.764;2023-04-27T14:31:47;6.95;;;5.60;;
2434;SDS011;1228;51.022;6.764;2023-04-27T14:34:13;7.45;;;5.45;;
2434;SDS011;1228;51.022;6.764;2023-04-27T14:36:38;8.52;;;5.55;;
2434;SDS011;1228;51.022;6.764;2023-04-27T14:39:04;5.80;;;5.32;;
2434;SDS011;1228;51.022;6.764;2023-04-27T14:41:32;6.65;;;6.00;;
2434;SDS011;1228;51.022;6.764;2023-04-27T14:43:59;6.25;;;5.63;;
2434;SDS011;1228;51.022;6.764;2023-04-27T14:46:25;6.97;;;6.35;;
2434;SDS011;1228;51.022;6.764;2023-04-27T14:48:50;9.05;;;5.65;;
2434;SDS011;1228;51.022;6.764;2023-04-27T14:51:16;5.18;;;4.75;;
2434;SDS011;1228;51.022;6.764;2023-04-27T14:53:41;6.45;;;5.88;;
2434;SDS011;1228;51.022;6.764;2023-04-27T14:56:07;6.13;;;5.55;;
2434;SDS011;1228;51.022;6.764;2023-04-27T14:58:33;6.68;;;6.00;;
2434;SDS011;1228;51.022;6.764;2023-04-27T15:00:59;8.30;;;5.70;;
2434;SDS011;1228;51.022;6.764;2023-04-27T15:03:28;6.03;;;5.30;;
2434;SDS011;1228;51.022;6.764;2023-04-27T15:05:57;5.85;;;5.35;;
2434;SDS011;1228;51.022;6.764;2023-04-27T15:08:24;6.30;;;5.70;;
2434;SDS011;1228;51.022;6.764;2023-04-27T15:10:49;5.22;;;4.70;;
2434;SDS011;1228;51.022;6.764;2023-04-27T15:13:15;8.70;;;6.40;;
2434;SDS011;1228;51.022;6.764;2023-04-27T15:15:41;8.60;;;5.53;;
2434;SDS011;1228;51.022;6.764;2023-04-27T15:18:09;9.05;;;5.40;;
2434;SDS011;1228;51.022;6.764;2023-04-27T15:20:35;6.13;;;5.53;;
2434;SDS011;1228;51.022;6.764;2023-04-27T15:23:01;10.50;;;5.75;;
2434;SDS011;1228;51.022;6.764;2023-04-27T15:25:27;10.23;;;6.40;;
2434;SDS011;1228;51.022;6.764;2023-04-27T15:27:52;10.43;;;6.72;;
2434;SDS011;1228;51.022;6.764;2023-04-27T15:30:18;7.65;;;5.30;;